Time;durP1;ratioP1;P1;durP2;ratioP2;P2;SDS_P1;SDS_P2;PMS_P1;PMS_P2;Temp;Humidity;BMP_temperature;BMP_pressure;BME280_temperature;BME280_humidity;BME280_pressure;Samples;Min_cycle;Max_cycle;Signal;HPM_P1;HPM_P2
2022/03/12 00:01:26;;;;;;;14.40;12.87;;;9.50;41.70;;;;;;5009363;28;20209;-87
2022/03/12 00:03:53;;;;;;;16.17;13.67;;;9.50;41.80;;;;;;5007312;28;20183;-87
2022/03/12 00:06:19;;;;;;;13.20;11.93;;;9.50;40.30;;;;;;5005648;28;20171;-87
2022/03/12 00:08:47;;;;;;;13.53;12.13;;;9.60;41.80;;;;;;5008514;28;20213;-87
2022/03/12 00:11:27;;;;;;;14.20;12.77;;;9.60;43.90;;;;;;5023569;28;20657;-87
2022/03/12 00:13:57;;;;;;;14.03;12.73;;;9.60;44.90;;;;;;5019025;28;20794;-87
2022/03/12 00:16:24;;;;;;;14.70;12.50;;;9.50;45.10;;;;;;5020322;28;20192;-87
2022/03/12 00:18:55;;;;;;;14.30;12.90;;;9.60;44.60;;;;;;5014331;28;20248;-87
2022/03/12 00:21:25;;;;;;;14.27;12.87;;;9.50;45.00;;;;;;5024236;28;20217;-87
2022/03/12 00:23:53;;;;;;;13.27;11.77;;;9.30;43.70;;;;;;5013238;28;20198;-87
2022/03/12 00:26:23;;;;;;;14.80;13.30;;;9.20;43.80;;;;;;5003649;28;20315;-87
2022/03/12 00:28:50;;;;;;;15.67;13.27;;;9.10;47.30;;;;;;5008565;28;20190;-87
2022/03/12 00:31:16;;;;;;;13.27;12.07;;;9.00;45.60;;;;;;5023296;28;20205;-87
2022/03/12 00:33:42;;;;;;;13.50;12.13;;;8.90;47.10;;;;;;5030445;28;20261;-87
2022/03/12 00:36:09;;;;;;;15.33;12.73;;;8.90;45.80;;;;;;5019961;28;20237;-87
2022/03/12 00:38:35;;;;;;;14.20;12.73;;;9.10;46.40;;;;;;5011964;28;20239;-87
2022/03/12 00:41:04;;;;;;;13.10;11.77;;;9.00;46.00;;;;;;5011024;28;20210;-87
2022/03/12 00:43:30;;;;;;;13.77;12.40;;;9.00;45.00;;;;;;5018537;28;20216;-87
2022/03/12 00:45:56;;;;;;;15.33;12.70;;;9.00;44.80;;;;;;5019558;28;20257;-87
2022/03/12 00:48:21;;;;;;;13.53;12.17;;;9.00;44.60;;;;;;5007653;28;20214;-87
2022/03/12 00:50:48;;;;;;;14.73;12.70;;;9.00;44.90;;;;;;5014683;28;20263;-87
2022/03/12 00:53:13;;;;;;;14.67;13.13;;;9.10;44.90;;;;;;5013527;28;20740;-87
2022/03/12 00:55:39;;;;;;;13.40;12.20;;;9.20;44.60;;;;;;5021755;28;20228;-87
2022/03/12 00:58:05;;;;;;;13.20;11.90;;;9.10;44.90;;;;;;5024129;28;20691;-88
2022/03/12 01:00:31;;;;;;;14.30;12.80;;;9.20;45.60;;;;;;5007936;28;20233;-87
2022/03/12 01:02:57;;;;;;;13.33;11.97;;;9.20;46.40;;;;;;5004797;28;20198;-87
2022/03/12 01:05:44;;;;;;;13.33;12.03;;;9.10;46.60;;;;;;5012930;28;20245;-87
2022/03/12 01:08:09;;;;;;;13.27;11.57;;;8.80;46.00;;;;;;5004124;28;20216;-87
2022/03/12 01:10:35;;;;;;;14.97;13.47;;;8.80;45.70;;;;;;5015605;28;20214;-87
2022/03/12 01:13:01;;;;;;;13.67;12.27;;;8.80;44.90;;;;;;5010662;28;20221;-87
2022/03/12 01:15:26;;;;;;;13.90;12.50;;;8.80;47.60;;;;;;5017217;28;20201;-87
2022/03/12 01:17:52;;;;;;;12.90;11.70;;;8.80;48.60;;;;;;5015713;28;20218;-87
2022/03/12 01:20:21;;;;;;;13.13;11.83;;;8.80;48.20;;;;;;5010816;28;20190;-87
2022/03/12 01:22:47;;;;;;;15.07;13.57;;;8.80;48.20;;;;;;5013419;28;20189;-87
2022/03/12 01:25:13;;;;;;;14.27;12.87;;;8.70;48.30;;;;;;5023450;28;20182;-87
2022/03/12 01:27:39;;;;;;;15.83;12.40;;;8.70;48.50;;;;;;5020410;28;20205;-87
2022/03/12 01:30:07;;;;;;;14.53;12.37;;;8.80;47.80;;;;;;5019119;28;20185;-87
2022/03/12 01:32:34;;;;;;;14.30;12.83;;;8.90;47.70;;;;;;5019029;28;20214;-87
2022/03/12 01:35:00;;;;;;;14.73;13.23;;;8.90;48.10;;;;;;5018320;28;20197;-87
2022/03/12 01:37:25;;;;;;;13.03;11.83;;;8.80;48.90;;;;;;5022115;28;20214;-88
2022/03/12 01:39:51;;;;;;;13.67;12.27;;;8.80;48.60;;;;;;5018467;28;20197;-87
2022/03/12 01:42:20;;;;;;;14.50;12.90;;;8.80;48.60;;;;;;5021580;28;20201;-87
2022/03/12 01:44:47;;;;;;;14.30;12.90;;;8.80;49.10;;;;;;5007570;28;20554;-87
2022/03/12 01:47:19;;;;;;;14.33;12.83;;;8.80;48.50;;;;;;5019018;28;20201;-87
2022/03/12 01:49:47;;;;;;;14.63;13.23;;;8.80;48.40;;;;;;5019286;28;20209;-88
2022/03/12 01:52:13;;;;;;;15.30;13.70;;;8.90;48.40;;;;;;5014687;28;20220;-87
2022/03/12 01:54:42;;;;;;;14.63;13.27;;;8.90;48.10;;;;;;5020482;28;20190;-87
2022/03/12 01:57:10;;;;;;;17.10;14.17;;;8.90;48.10;;;;;;5007260;28;20847;-87
2022/03/12 01:59:36;;;;;;;14.23;12.83;;;8.90;48.10;;;;;;5010829;28;20244;-87
2022/03/12 02:02:06;;;;;;;14.33;12.83;;;8.70;48.80;;;;;;5011138;28;20210;-87
2022/03/12 02:04:31;;;;;;;16.20;13.03;;;8.60;48.70;;;;;;5014905;28;20710;-87
2022/03/12 02:07:00;;;;;;;14.33;12.20;;;8.40;50.90;;;;;;5021221;28;20190;-87
2022/03/12 02:09:26;;;;;;;13.87;12.47;;;8.40;50.30;;;;;;5013439;28;20592;-87
2022/03/12 02:11:53;;;;;;;13.73;12.43;;;8.30;50.50;;;;;;5026559;28;20325;-87
2022/03/12 02:14:27;;;;;;;14.47;12.93;;;8.40;51.80;;;;;;5025258;28;20238;-87
2022/03/12 02:17:02;;;;;;;13.67;12.37;;;8.40;50.40;;;;;;5017684;28;20182;-87
2022/03/12 02:19:30;;;;;;;13.90;12.47;;;8.40;49.20;;;;;;5009643;28;20239;-87
2022/03/12 02:22:07;;;;;;;13.23;11.83;;;8.40;49.30;;;;;;5026071;28;20201;-87
2022/03/12 02:24:35;;;;;;;13.47;11.87;;;8.40;49.50;;;;;;5023421;28;20191;-87
2022/03/12 02:27:02;;;;;;;15.00;12.83;;;8.40;49.60;;;;;;5027711;28;20188;-87
2022/03/12 02:29:28;;;;;;;12.80;11.50;;;8.40;49.80;;;;;;5024706;28;20276;-87
2022/03/12 02:31:57;;;;;;;14.83;12.90;;;8.30;49.60;;;;;;5024809;28;20274;-87
2022/03/12 02:34:53;;;;;;;15.10;13.60;;;8.30;49.90;;;;;;5010460;28;20187;-87
2022/03/12 02:37:30;;;;;;;13.53;11.60;;;8.30;50.10;;;;;;5009255;28;20225;-87
2022/03/12 02:40:05;;;;;;;15.73;13.70;;;8.30;50.40;;;;;;5025161;28;20196;-87
2022/03/12 02:42:35;;;;;;;16.33;14.03;;;8.30;50.10;;;;;;5024713;28;20200;-87
2022/03/12 02:45:01;;;;;;;15.70;12.73;;;8.30;50.00;;;;;;5011018;28;20186;-87
2022/03/12 02:47:32;;;;;;;14.33;12.83;;;8.20;50.90;;;;;;5009719;28;20221;-87
2022/03/12 02:50:03;;;;;;;14.77;12.97;;;8.20;50.80;;;;;;5011105;28;20637;-87
2022/03/12 02:52:31;;;;;;;15.20;12.57;;;8.20;50.40;;;;;;5016940;28;20218;-87
2022/03/12 02:54:59;;;;;;;14.47;13.00;;;8.20;50.90;;;;;;5017694;28;20224;-87
2022/03/12 02:57:29;;;;;;;15.00;13.60;;;8.10;51.20;;;;;;5025431;28;20206;-87
2022/03/12 03:00:03;;;;;;;12.97;11.67;;;8.10;51.20;;;;;;5020882;28;20190;-87
2022/03/12 03:02:40;;;;;;;13.73;12.43;;;8.10;50.50;;;;;;5004459;28;20861;-87
2022/03/12 03:05:21;;;;;;;14.80;13.20;;;8.20;50.10;;;;;;5010878;28;20260;-87
2022/03/12 03:07:54;;;;;;;14.30;12.90;;;8.20;49.30;;;;;;5013988;28;20189;-87
2022/03/12 03:10:43;;;;;;;15.13;13.60;;;8.20;49.10;;;;;;5024790;28;20667;-87
2022/03/12 03:13:16;;;;;;;14.37;12.87;;;8.20;49.20;;;;;;5010442;28;20201;-87
2022/03/12 03:15:56;;;;;;;13.43;12.23;;;8.20;49.40;;;;;;5022406;28;20196;-87
2022/03/12 03:18:28;;;;;;;13.93;12.53;;;8.20;52.00;;;;;;5024431;28;20259;-87
2022/03/12 03:20:55;;;;;;;14.63;13.07;;;8.10;52.60;;;;;;5029905;28;20740;-86
2022/03/12 03:23:26;;;;;;;13.50;12.10;;;8.00;52.50;;;;;;5030447;28;20253;-86
2022/03/12 03:25:52;;;;;;;13.63;12.33;;;8.00;51.70;;;;;;5021991;28;20553;-87
2022/03/12 03:28:18;;;;;;;15.20;13.70;;;8.10;51.90;;;;;;5014549;28;20194;-87
2022/03/12 03:30:44;;;;;;;14.70;13.20;;;8.00;52.30;;;;;;5019924;28;20209;-87
2022/03/12 03:33:13;;;;;;;14.30;12.50;;;7.90;51.20;;;;;;5015732;28;20209;-87
2022/03/12 03:35:39;;;;;;;14.37;12.83;;;7.80;52.40;;;;;;5035792;28;20193;-87
2022/03/12 03:38:07;;;;;;;17.93;15.23;;;7.70;52.50;;;;;;5013475;28;20221;-87
2022/03/12 03:40:32;;;;;;;14.07;12.67;;;7.60;54.00;;;;;;5020150;28;20217;-87
2022/03/12 03:42:58;;;;;;;16.10;13.10;;;7.60;54.40;;;;;;5012805;28;20186;-87
2022/03/12 03:45:27;;;;;;;14.30;12.80;;;7.70;54.50;;;;;;5013226;28;20222;-87
2022/03/12 03:47:55;;;;;;;15.17;13.50;;;7.60;53.90;;;;;;5023328;28;20657;-87
2022/03/12 03:50:25;;;;;;;16.00;13.73;;;7.50;53.60;;;;;;5019660;28;20198;-87
2022/03/12 03:52:52;;;;;;;14.23;12.73;;;7.10;54.10;;;;;;5004567;28;20187;-87
2022/03/12 03:55:18;;;;;;;18.53;11.87;;;6.80;53.00;;;;;;5016586;28;20186;-87
2022/03/12 03:57:43;;;;;;;13.80;12.40;;;6.60;52.60;;;;;;5016064;28;20212;-87
2022/03/12 04:00:11;;;;;;;15.87;13.13;;;6.60;52.60;;;;;;5019439;28;20193;-87
2022/03/12 04:02:37;;;;;;;13.33;12.00;;;6.60;51.90;;;;;;5011394;28;20197;-87
2022/03/12 04:05:03;;;;;;;14.07;11.67;;;6.70;52.00;;;;;;5016029;28;20280;-86
2022/03/12 04:07:28;;;;;;;15.43;12.73;;;6.70;50.80;;;;;;5016046;28;20189;-87
2022/03/12 04:09:54;;;;;;;15.30;11.77;;;6.60;51.40;;;;;;5013253;28;20190;-87
2022/03/12 04:12:20;;;;;;;14.20;12.53;;;6.40;52.40;;;;;;5019293;28;20213;-87
2022/03/12 04:14:45;;;;;;;13.33;11.63;;;6.50;52.90;;;;;;5017595;28;20181;-87
2022/03/12 04:17:15;;;;;;;12.40;11.13;;;6.50;53.30;;;;;;5020331;28;20203;-87
2022/03/12 04:19:41;;;;;;;12.90;11.57;;;6.70;56.30;;;;;;5008095;28;20248;-87
2022/03/12 04:22:07;;;;;;;12.47;11.27;;;6.80;56.90;;;;;;5007158;28;20673;-87
2022/03/12 04:24:34;;;;;;;13.17;11.33;;;7.00;56.10;;;;;;5012780;28;20189;-87
2022/03/12 04:27:02;;;;;;;13.27;11.43;;;7.00;55.70;;;;;;5016648;28;20657;-87
2022/03/12 04:29:28;;;;;;;12.77;11.47;;;7.10;55.70;;;;;;5016523;28;20216;-87
2022/03/12 04:31:53;;;;;;;14.40;12.23;;;7.10;55.30;;;;;;5018139;28;20844;-87
2022/03/12 04:34:20;;;;;;;14.13;11.87;;;7.20;54.70;;;;;;5018858;28;20244;-87
2022/03/12 04:36:46;;;;;;;15.03;12.27;;;7.30;54.20;;;;;;5005661;28;20202;-87
2022/03/12 04:39:12;;;;;;;12.23;11.03;;;7.30;54.50;;;;;;5006536;28;20282;-86
2022/03/12 04:41:40;;;;;;;12.63;11.40;;;7.50;54.70;;;;;;5014234;28;20242;-87
2022/03/12 04:44:07;;;;;;;11.80;10.67;;;7.50;54.70;;;;;;5010596;28;20261;-87
2022/03/12 04:46:35;;;;;;;12.27;10.97;;;7.60;54.40;;;;;;5007681;28;20236;-87
2022/03/12 04:49:01;;;;;;;12.87;11.57;;;7.60;54.70;;;;;;5009602;28;20216;-87
2022/03/12 04:51:28;;;;;;;14.53;12.20;;;7.70;55.00;;;;;;5011545;28;20241;-86
2022/03/12 04:53:58;;;;;;;12.63;11.37;;;7.70;55.60;;;;;;5010411;28;20182;-87
2022/03/12 04:56:25;;;;;;;17.07;12.77;;;7.60;57.10;;;;;;5015719;28;20189;-87
2022/03/12 04:58:53;;;;;;;15.10;12.03;;;7.50;58.20;;;;;;5006282;28;20314;-87
2022/03/12 05:01:20;;;;;;;14.63;12.33;;;7.30;57.90;;;;;;5004730;28;20221;-87
2022/03/12 05:03:46;;;;;;;13.77;12.33;;;7.10;58.80;;;;;;5002765;28;20182;-86
2022/03/12 05:06:13;;;;;;;13.60;12.30;;;7.10;57.50;;;;;;5010121;28;20189;-86
2022/03/12 05:08:39;;;;;;;13.23;11.83;;;7.10;57.80;;;;;;5015066;28;20186;-87
2022/03/12 05:11:06;;;;;;;13.70;12.20;;;7.00;56.50;;;;;;5006733;28;20276;-87
2022/03/12 05:13:32;;;;;;;13.90;11.60;;;7.00;56.00;;;;;;5013447;28;20538;-87
2022/03/12 05:16:04;;;;;;;13.97;12.57;;;7.00;55.60;;;;;;5020420;28;20197;-86
2022/03/12 05:18:31;;;;;;;14.03;12.60;;;7.10;55.50;;;;;;5008934;28;20218;-87
2022/03/12 05:20:58;;;;;;;15.93;13.10;;;7.30;53.60;;;;;;5002667;28;20636;-86
2022/03/12 05:23:23;;;;;;;14.70;13.23;;;7.30;52.80;;;;;;5008930;28;20298;-88
2022/03/12 05:25:51;;;;;;;13.83;12.43;;;7.30;51.40;;;;;;5016069;28;20465;-86
2022/03/12 05:28:26;;;;;;;13.57;11.60;;;7.30;52.80;;;;;;5012726;28;20197;-86
2022/03/12 05:30:59;;;;;;;13.70;12.30;;;7.30;53.90;;;;;;5010062;28;20214;-89
2022/03/12 05:33:25;;;;;;;14.27;12.77;;;7.30;54.00;;;;;;5006168;28;20600;-86
2022/03/12 05:35:54;;;;;;;16.23;12.87;;;7.40;53.30;;;;;;5007283;28;20206;-86
2022/03/12 05:38:21;;;;;;;19.17;15.07;;;7.50;52.20;;;;;;5015576;28;20285;-86
2022/03/12 05:40:48;;;;;;;16.57;13.67;;;7.60;50.50;;;;;;5010230;28;20269;-86
2022/03/12 05:43:15;;;;;;;15.47;13.87;;;7.40;50.20;;;;;;5004236;28;20186;-86
2022/03/12 05:45:45;;;;;;;16.83;15.10;;;7.20;50.40;;;;;;5005084;28;20840;-86
2022/03/12 05:48:12;;;;;;;17.03;14.13;;;7.20;50.60;;;;;;5012985;28;20200;-88
2022/03/12 05:50:39;;;;;;;16.40;14.50;;;7.20;50.10;;;;;;5012014;28;20218;-86
2022/03/12 05:53:09;;;;;;;14.27;12.77;;;7.20;51.30;;;;;;5013272;28;20202;-86
2022/03/12 05:55:38;;;;;;;16.30;14.67;;;7.20;51.20;;;;;;5013574;28;20423;-86
2022/03/12 05:58:04;;;;;;;15.10;13.40;;;7.20;50.30;;;;;;5011979;28;20564;-86
2022/03/12 06:00:32;;;;;;;16.50;12.77;;;7.20;50.80;;;;;;5016674;28;20280;-86
2022/03/12 06:02:58;;;;;;;15.40;13.57;;;7.20;51.10;;;;;;5016448;28;20190;-86
2022/03/12 06:05:24;;;;;;;17.20;12.70;;;7.20;51.70;;;;;;5013164;28;20208;-86
2022/03/12 06:07:51;;;;;;;14.97;12.73;;;7.10;52.80;;;;;;5008133;28;20202;-87
2022/03/12 06:10:20;;;;;;;14.00;12.60;;;7.00;53.10;;;;;;5008604;28;20185;-86
2022/03/12 06:12:46;;;;;;;13.90;12.33;;;6.70;54.40;;;;;;5022060;28;20193;-86
2022/03/12 06:15:16;;;;;;;16.00;12.97;;;6.60;55.40;;;;;;5003566;28;20180;-86
2022/03/12 06:17:42;;;;;;;14.80;12.20;;;6.60;56.50;;;;;;5013721;28;20214;-88
2022/03/12 06:20:10;;;;;;;13.00;11.73;;;6.50;56.60;;;;;;5013071;28;20251;-87
2022/03/12 06:22:36;;;;;;;15.73;12.13;;;6.50;56.10;;;;;;5017386;28;20177;-87
2022/03/12 06:25:03;;;;;;;13.07;11.27;;;6.60;56.00;;;;;;5012982;28;20190;-87
2022/03/12 06:27:29;;;;;;;17.50;13.53;;;6.80;56.20;;;;;;5005416;28;20190;-87
2022/03/12 06:29:56;;;;;;;16.33;12.23;;;7.00;56.50;;;;;;5007906;28;20196;-86
2022/03/12 06:32:23;;;;;;;13.40;12.00;;;6.90;56.90;;;;;;5019916;28;20223;-86
2022/03/12 06:34:48;;;;;;;13.13;11.73;;;6.90;56.30;;;;;;5012920;28;20201;-87
2022/03/12 06:37:14;;;;;;;12.53;11.23;;;6.90;55.90;;;;;;5008793;28;20222;-86
2022/03/12 06:39:41;;;;;;;13.43;12.10;;;7.00;54.60;;;;;;5018874;28;20224;-85
2022/03/12 06:42:07;;;;;;;13.57;12.17;;;7.10;57.80;;;;;;5013687;28;20301;-86
2022/03/12 06:44:33;;;;;;;14.00;12.27;;;7.10;57.90;;;;;;5020821;28;20178;-85
2022/03/12 06:47:08;;;;;;;12.57;11.10;;;7.20;58.30;;;;;;5026027;28;20190;-85
2022/03/12 06:49:35;;;;;;;13.00;11.73;;;7.30;56.30;;;;;;5020575;28;20244;-87
2022/03/12 06:52:01;;;;;;;15.43;12.30;;;7.40;55.80;;;;;;5008240;28;20241;-88
2022/03/12 06:54:27;;;;;;;13.13;11.73;;;7.40;55.10;;;;;;5014192;28;20181;-87
2022/03/12 07:00:42;;;;;;;14.47;12.97;;;7.70;50.40;;;;;;5014003;28;20224;-87
2022/03/12 07:03:08;;;;;;;12.83;11.53;;;7.70;48.20;;;;;;5012264;28;20201;-87
2022/03/12 07:05:34;;;;;;;14.20;12.70;;;7.50;50.70;;;;;;4995786;28;20186;-87
2022/03/12 07:07:59;;;;;;;14.20;12.70;;;7.40;49.80;;;;;;5026568;28;20684;-88
2022/03/12 07:10:25;;;;;;;16.40;12.90;;;7.40;49.40;;;;;;4999698;28;20187;-87
2022/03/12 07:12:51;;;;;;;13.40;12.07;;;7.40;49.00;;;;;;5006909;28;20660;-87
2022/03/12 07:15:19;;;;;;;15.07;12.90;;;7.40;49.00;;;;;;5007271;28;20182;-87
2022/03/12 07:17:45;;;;;;;14.43;12.93;;;7.50;48.70;;;;;;5021071;28;20684;-86
2022/03/12 07:20:12;;;;;;;14.40;12.90;;;7.50;48.40;;;;;;5002478;28;20202;-87
2022/03/12 07:22:39;;;;;;;13.50;12.10;;;7.40;47.90;;;;;;5010908;28;20189;-87
2022/03/12 07:25:06;;;;;;;15.47;12.60;;;7.40;48.10;;;;;;5008800;28;20194;-89
2022/03/12 07:27:32;;;;;;;14.93;13.33;;;7.40;47.60;;;;;;5016361;28;20194;-86
2022/03/12 07:30:00;;;;;;;20.73;18.67;;;7.40;48.20;;;;;;5014678;28;20183;-87
2022/03/12 07:32:28;;;;;;;19.10;17.20;;;7.50;47.90;;;;;;5020625;28;20205;-86
2022/03/12 07:34:55;;;;;;;14.30;12.80;;;7.60;48.30;;;;;;5017350;28;20185;-87
2022/03/12 07:37:21;;;;;;;18.13;13.50;;;7.60;48.80;;;;;;5021567;28;20201;-86
2022/03/12 07:39:47;;;;;;;16.37;13.77;;;7.80;48.10;;;;;;5015744;28;20261;-87
2022/03/12 07:42:14;;;;;;;15.67;13.97;;;7.90;46.90;;;;;;5018840;28;20206;-87
2022/03/12 07:44:41;;;;;;;17.67;13.63;;;8.00;47.30;;;;;;5009028;28;20722;-87
2022/03/12 07:47:07;;;;;;;16.13;13.10;;;8.00;46.90;;;;;;5029990;28;20289;-86
2022/03/12 07:49:34;;;;;;;15.83;13.20;;;8.10;47.20;;;;;;5008789;28;20298;-87
2022/03/12 07:52:00;;;;;;;18.03;13.67;;;8.20;46.70;;;;;;5005294;28;20295;-87
2022/03/12 07:54:26;;;;;;;14.40;12.63;;;8.30;45.90;;;;;;5009056;28;20183;-87
2022/03/12 07:56:52;;;;;;;14.00;12.60;;;8.30;46.40;;;;;;5012797;28;20253;-87
2022/03/12 07:59:18;;;;;;;16.37;12.73;;;8.50;45.90;;;;;;5016483;28;20238;-87
2022/03/12 08:01:44;;;;;;;16.27;12.73;;;8.50;45.60;;;;;;5026150;28;20240;-87
2022/03/12 08:04:10;;;;;;;17.37;13.60;;;8.60;45.10;;;;;;5006786;28;20189;-87
2022/03/12 08:06:36;;;;;;;16.93;13.30;;;8.70;45.50;;;;;;5016871;28;20213;-87
2022/03/12 08:09:03;;;;;;;16.97;12.53;;;8.70;44.00;;;;;;5018066;28;20189;-87
2022/03/12 08:11:29;;;;;;;16.07;13.17;;;8.80;44.00;;;;;;5019010;28;20807;-87
2022/03/12 08:14:04;;;;;;;15.40;12.17;;;8.80;43.50;;;;;;5018259;28;20214;-87
2022/03/12 08:16:33;;;;;;;17.63;13.40;;;9.00;43.90;;;;;;5021166;28;21101;-85
2022/03/12 08:19:01;;;;;;;15.10;12.83;;;9.00;43.40;;;;;;5004447;28;20206;-87
2022/03/12 08:21:27;;;;;;;14.90;13.27;;;9.00;43.10;;;;;;5022696;28;20190;-86
2022/03/12 08:23:53;;;;;;;16.20;13.37;;;8.90;43.30;;;;;;5008123;28;20194;-86
2022/03/12 08:26:19;;;;;;;14.70;12.50;;;9.00;43.50;;;;;;5007786;28;20216;-87
2022/03/12 08:28:46;;;;;;;18.57;13.10;;;9.20;42.70;;;;;;5010477;28;20190;-87
2022/03/12 08:31:12;;;;;;;20.07;17.17;;;9.20;42.90;;;;;;5017820;28;20677;-87
2022/03/12 08:33:37;;;;;;;15.77;13.83;;;9.20;43.20;;;;;;5009233;28;20194;-87
2022/03/12 08:36:04;;;;;;;15.03;13.53;;;9.30;43.10;;;;;;5014503;28;20225;-87
2022/03/12 08:38:32;;;;;;;16.90;13.47;;;9.60;42.60;;;;;;5018239;28;20220;-87
2022/03/12 08:40:58;;;;;;;14.33;12.90;;;9.70;42.70;;;;;;5016610;28;20581;-87
2022/03/12 08:43:24;;;;;;;16.93;15.17;;;9.80;42.00;;;;;;5005553;28;20221;-87
2022/03/12 08:45:49;;;;;;;17.13;15.00;;;9.90;42.20;;;;;;5007949;28;20213;-87
2022/03/12 08:48:16;;;;;;;17.23;15.37;;;10.00;42.50;;;;;;5020803;28;20205;-88
2022/03/12 08:50:43;;;;;;;16.07;13.93;;;10.10;42.40;;;;;;5023588;28;20287;-89
2022/03/12 08:53:10;;;;;;;16.13;14.03;;;10.10;41.90;;;;;;5019665;28;20197;-88
2022/03/12 08:55:35;;;;;;;20.20;15.17;;;10.10;42.00;;;;;;5007620;28;20257;-90
2022/03/12 08:58:01;;;;;;;18.83;15.53;;;10.30;41.70;;;;;;5028449;28;20220;-90
2022/03/12 09:00:27;;;;;;;19.10;15.90;;;10.40;41.60;;;;;;5023340;28;20190;-90
2022/03/12 09:02:53;;;;;;;17.20;15.37;;;10.40;40.90;;;;;;5027523;28;20293;-90
2022/03/12 09:05:19;;;;;;;18.87;16.00;;;10.50;40.70;;;;;;5022250;28;20261;-90
2022/03/12 09:07:45;;;;;;;16.60;14.77;;;10.50;41.10;;;;;;5023431;28;20181;-89
2022/03/12 09:10:13;;;;;;;17.10;15.30;;;10.50;40.50;;;;;;5023953;28;20189;-90
2022/03/12 09:12:40;;;;;;;17.20;15.40;;;10.60;40.80;;;;;;5033704;28;20190;-91
2022/03/12 09:15:07;;;;;;;18.63;16.63;;;10.70;41.40;;;;;;5028223;28;20186;-91
2022/03/12 09:17:33;;;;;;;18.77;15.63;;;10.80;41.00;;;;;;5017628;28;20217;-90
2022/03/12 09:19:59;;;;;;;18.50;16.50;;;10.90;39.90;;;;;;5007045;28;20213;-90
2022/03/12 09:22:24;;;;;;;18.80;16.77;;;11.00;39.70;;;;;;5009483;28;20201;-91
2022/03/12 09:24:50;;;;;;;18.13;16.07;;;11.10;39.40;;;;;;5025355;28;20200;-90
2022/03/12 09:27:16;;;;;;;19.67;15.60;;;11.00;39.30;;;;;;5027363;28;20207;-90
2022/03/12 09:29:42;;;;;;;16.60;14.83;;;11.10;39.80;;;;;;5027564;28;20184;-91
2022/03/12 09:32:08;;;;;;;19.47;15.33;;;11.20;38.80;;;;;;5021157;28;20216;-90
2022/03/12 09:34:35;;;;;;;19.90;15.40;;;11.20;38.40;;;;;;5026318;28;20272;-91
2022/03/12 09:37:02;;;;;;;19.27;15.77;;;11.10;38.50;;;;;;5019884;28;20268;-91
2022/03/12 09:39:27;;;;;;;16.77;14.73;;;11.10;38.60;;;;;;5008884;28;20216;-90
2022/03/12 09:41:53;;;;;;;16.83;14.07;;;11.30;38.40;;;;;;5021545;28;20723;-90
2022/03/12 09:44:19;;;;;;;16.03;14.33;;;11.50;38.70;;;;;;5007797;28;20193;-91
2022/03/12 09:46:45;;;;;;;16.37;14.80;;;11.70;38.20;;;;;;5012831;28;20213;-90
2022/03/12 09:49:11;;;;;;;15.27;13.77;;;12.00;37.80;;;;;;5002757;28;20212;-90
2022/03/12 09:51:37;;;;;;;18.40;15.67;;;12.20;37.10;;;;;;5007676;28;20219;-91
2022/03/12 09:54:03;;;;;;;20.20;16.27;;;12.50;36.80;;;;;;5024411;28;20199;-90
2022/03/12 09:56:30;;;;;;;20.23;15.80;;;12.70;36.30;;;;;;5029145;28;20179;-91
2022/03/12 09:58:56;;;;;;;17.97;15.93;;;12.60;36.20;;;;;;5016769;28;20253;-91
2022/03/12 10:01:22;;;;;;;16.57;14.80;;;12.60;36.70;;;;;;5021842;28;20251;-90
2022/03/12 10:03:48;;;;;;;17.40;15.50;;;12.60;37.00;;;;;;5016747;28;20191;-90
2022/03/12 10:06:16;;;;;;;17.00;15.27;;;12.70;36.70;;;;;;5014735;28;20682;-90
2022/03/12 10:08:43;;;;;;;19.50;16.13;;;13.00;36.80;;;;;;5019981;28;20272;-90
2022/03/12 10:11:09;;;;;;;17.50;15.77;;;13.10;35.70;;;;;;5023851;28;20210;-90
2022/03/12 10:13:35;;;;;;;19.50;16.17;;;13.10;36.10;;;;;;5023585;28;20184;-90
2022/03/12 10:16:01;;;;;;;19.17;15.97;;;13.10;36.20;;;;;;5021942;28;20283;-91
2022/03/12 10:18:27;;;;;;;18.80;16.30;;;13.00;36.40;;;;;;5022099;28;20724;-90
2022/03/12 10:20:53;;;;;;;17.30;15.53;;;13.00;36.10;;;;;;5006270;28;20260;-90
2022/03/12 10:23:20;;;;;;;18.80;16.17;;;13.20;36.20;;;;;;5003590;28;20189;-90
2022/03/12 10:25:45;;;;;;;18.80;16.70;;;13.50;36.30;;;;;;5003608;28;20188;-91
2022/03/12 10:28:12;;;;;;;17.63;15.93;;;13.70;35.80;;;;;;5002794;28;20189;-90
2022/03/12 10:30:38;;;;;;;23.23;16.27;;;13.90;35.60;;;;;;4988023;28;20225;-90
2022/03/12 10:33:06;;;;;;;20.90;16.47;;;14.00;35.90;;;;;;5023146;28;20257;-91
2022/03/12 10:35:38;;;;;;;19.07;16.23;;;14.10;35.10;;;;;;5004313;28;20200;-90
2022/03/12 10:38:11;;;;;;;18.00;15.87;;;14.20;35.10;;;;;;5008652;28;20210;-90
2022/03/12 10:40:37;;;;;;;20.97;18.10;;;14.20;34.70;;;;;;5017029;28;20229;-91
2022/03/12 10:43:13;;;;;;;16.70;15.00;;;14.40;35.00;;;;;;5022237;28;20186;-90
2022/03/12 10:45:48;;;;;;;17.93;16.13;;;14.70;34.80;;;;;;5022950;28;20187;-90
2022/03/12 10:48:20;;;;;;;20.33;18.17;;;14.80;35.20;;;;;;5021244;28;20205;-91
2022/03/12 10:50:50;;;;;;;18.97;17.03;;;15.00;34.30;;;;;;5027237;28;20229;-90
2022/03/12 10:53:17;;;;;;;18.70;16.87;;;15.30;34.20;;;;;;5023028;28;20311;-90
2022/03/12 10:55:45;;;;;;;17.90;15.97;;;15.20;34.50;;;;;;4998032;28;20200;-90
2022/03/12 10:58:15;;;;;;;17.27;15.57;;;15.00;35.00;;;;;;5008347;28;20221;-90
2022/03/12 11:00:50;;;;;;;16.93;15.23;;;15.20;35.70;;;;;;5023579;28;20220;-91
2022/03/12 11:03:24;;;;;;;17.70;15.80;;;15.40;35.20;;;;;;5023704;28;20185;-91
2022/03/12 11:05:52;;;;;;;18.17;16.37;;;15.50;35.20;;;;;;5023946;28;20722;-90
2022/03/12 11:08:21;;;;;;;17.83;16.13;;;15.50;35.00;;;;;;5019387;28;20275;-91
2022/03/12 11:10:54;;;;;;;18.50;16.70;;;15.40;35.50;;;;;;5004284;28;20664;-90
2022/03/12 11:13:25;;;;;;;17.70;15.90;;;15.40;36.20;;;;;;5003736;28;20198;-91
2022/03/12 11:16:08;;;;;;;19.97;16.70;;;15.70;34.80;;;;;;5003669;28;20178;-89
2022/03/12 11:18:34;;;;;;;18.60;16.90;;;16.10;33.60;;;;;;5005771;28;20225;-91
2022/03/12 11:21:01;;;;;;;18.03;16.13;;;16.20;33.40;;;;;;5010799;28;20205;-91
2022/03/12 11:23:30;;;;;;;18.47;16.53;;;16.40;33.90;;;;;;5023793;28;20251;-91
2022/03/12 11:26:00;;;;;;;18.57;16.60;;;16.00;35.40;;;;;;5016735;28;20182;-91
2022/03/12 11:28:30;;;;;;;18.27;12.97;;;16.40;35.40;;;;;;5022247;28;20186;-90
2022/03/12 11:30:56;;;;;;;15.00;13.50;;;16.20;36.80;;;;;;5025238;28;20201;-91
2022/03/12 11:33:25;;;;;;;15.17;13.60;;;16.50;36.30;;;;;;5025174;28;20178;-91
2022/03/12 11:35:58;;;;;;;16.67;15.07;;;16.90;35.40;;;;;;5026404;28;20197;-89
2022/03/12 11:38:24;;;;;;;15.97;14.47;;;17.30;33.80;;;;;;5006619;28;20206;-90
2022/03/12 11:41:01;;;;;;;17.33;14.60;;;17.60;33.70;;;;;;5016839;28;20254;-90
2022/03/12 11:43:33;;;;;;;15.13;13.53;;;17.60;33.00;;;;;;5021784;28;20267;-90
2022/03/12 11:46:03;;;;;;;14.07;12.70;;;17.50;33.90;;;;;;5018766;28;20194;-90
2022/03/12 11:48:34;;;;;;;14.57;12.90;;;17.60;34.10;;;;;;5033320;28;20188;-89
2022/03/12 11:51:18;;;;;;;16.27;13.27;;;17.60;33.40;;;;;;5024133;28;20207;-89
2022/03/12 11:53:45;;;;;;;14.97;13.47;;;17.50;33.70;;;;;;5013500;28;20679;-89
2022/03/12 11:56:12;;;;;;;13.60;12.30;;;17.30;33.70;;;;;;5006094;28;20651;-88
2022/03/12 11:58:38;;;;;;;14.27;12.80;;;17.60;34.90;;;;;;5020512;28;20246;-87
2022/03/12 12:01:05;;;;;;;14.23;12.83;;;18.20;33.10;;;;;;5012997;28;20210;-87
2022/03/12 12:03:31;;;;;;;13.53;12.33;;;17.70;33.50;;;;;;5010054;28;20218;-89
2022/03/12 12:05:58;;;;;;;15.50;12.77;;;17.90;32.80;;;;;;5021040;28;20188;-88
2022/03/12 12:08:25;;;;;;;14.13;12.67;;;17.80;33.60;;;;;;5023611;28;20185;-88
2022/03/12 12:10:54;;;;;;;15.37;13.83;;;18.20;33.70;;;;;;5023456;28;20219;-88
2022/03/12 12:13:20;;;;;;;37.33;15.33;;;18.20;33.10;;;;;;5023010;28;20180;-88
2022/03/12 12:15:46;;;;;;;13.63;12.30;;;18.10;32.70;;;;;;5023961;28;20258;-88
2022/03/12 12:18:13;;;;;;;14.07;12.57;;;18.40;32.70;;;;;;5022215;28;20231;-89
2022/03/12 12:20:42;;;;;;;13.40;12.10;;;18.50;32.30;;;;;;5012177;28;20215;-88
2022/03/12 12:23:17;;;;;;;13.87;12.60;;;18.30;32.60;;;;;;5004196;28;20181;-88
2022/03/12 12:25:43;;;;;;;13.87;12.57;;;17.70;33.60;;;;;;5016987;28;20179;-90
2022/03/12 12:28:21;;;;;;;14.10;12.70;;;17.70;33.60;;;;;;5024838;28;20182;-90
2022/03/12 12:30:49;;;;;;;13.33;12.13;;;17.60;33.90;;;;;;5024087;28;20200;-90
2022/03/12 12:33:19;;;;;;;12.30;10.90;;;17.50;34.30;;;;;;5022429;28;20185;-90
2022/03/12 12:35:50;;;;;;;13.63;12.20;;;17.40;34.40;;;;;;5025101;28;20185;-90
2022/03/12 12:38:19;;;;;;;12.63;11.13;;;17.40;34.30;;;;;;5025786;28;20204;-89
2022/03/12 12:40:50;;;;;;;12.70;11.40;;;17.30;34.80;;;;;;5026006;28;20232;-90